27. Mai 2022

Uhrzeit Code Wetter Temp. Sichtweite Wolkendecke Wind METAR/SPECI
12:50 pm
M
59 °F 6¼ mi+ 2.800 ft 250° 250° 14 kt METAR EDTY 271050Z 25014KT 9999 FEW021 BKN028 OVC032 15/10 Q1022
12:20 pm
V
59 °F 6¼ mi+ 3.300 ft 250° 250° 12 kt METAR EDTY 271020Z 25012KT 9999 FEW024 BKN033 15/10 Q1022
11:50 am
V
61 °F 6¼ mi+ 3.000 ft 260° 260° 15 kt METAR EDTY 270950Z 26015KT 230V290 9999 SCT025 BKN030 16/10 Q1022
11:20 am
M
61 °F 6¼ mi+ 2.200 ft 250° 250° 15 kt METAR EDTY 270920Z 25015KT 9999 BKN022 BKN028 16/10 Q1022
10:50 am
V
59 °F 6¼ mi+ 3.100 ft 250° 250° 17 kt METAR EDTY 270850Z 25017KT 9999 SCT022 BKN031 15/10 Q1022
10:20 am
M
55 °F 6¼ mi+ 1.700 ft 250° 250° 12 kt METAR EDTY 270820Z 25012KT 9999 OVC017 13/10 Q1022
9:50 am
M
55 °F 6¼ mi+ 1.800 ft 260° 260° 11 kt METAR EDTY 270750Z 26011KT 230V290 9999 OVC018 13/10 Q1022
9:20 am
M
55 °F 6¼ mi+ 1.800 ft 260° 260° 11 kt METAR EDTY 270720Z 26011KT 9999 OVC018 13/10 Q1022
8:50 am
M
55 °F 6¼ mi+ 1.700 ft 260° 260° 15 kt METAR EDTY 270650Z 26015KT 230V290 9999 OVC017 13/10 Q1022
8:20 am
M
57 °F 6¼ mi+ 1.700 ft 260° 260° 14 kt METAR EDTY 270620Z 26014KT 9999 OVC017 14/10 Q1022
7:50 am
M
57 °F 6¼ mi+ 2.600 ft 260° 260° 13 kt METAR EDTY 270550Z 26013KT 9999 SCT018 OVC026 14/11 Q1022
7:20 am
M
57 °F 6¼ mi+ 2.200 ft 250° 250° 9 kt METAR EDTY 270520Z 25009KT 9999 BKN022 14/10 Q1022
6:50 am
V
55 °F 6¼ mi+ - 240° 240° 8 kt METAR EDTY 270450Z 24008KT 9999 FEW020 13/10 Q1021
6:20 am
V
54 °F 6¼ mi+ - 230° 230° 6 kt METAR EDTY 270420Z 23006KT CAVOK 12/10 Q1021
5:50 am
V
54 °F 6¼ mi+ - 220° 220° 7 kt METAR EDTY 270350Z AUTO 22007KT 9999 // NCD 12/09 Q1021
5:20 am
V
52 °F 6¼ mi+ - 230° 230° 6 kt METAR EDTY 270320Z AUTO 23006KT 9999 // NCD 11/09 Q1022
4:50 am
V
52 °F 6¼ mi+ - 230° 230° 6 kt METAR EDTY 270250Z AUTO 23006KT 9999 // NCD 11/09 Q1022
4:20 am
V
52 °F 6¼ mi+ - 230° 230° 5 kt METAR EDTY 270220Z AUTO 23005KT 9999 // NCD 11/09 Q1022
3:50 am
V
54 °F 6¼ mi+ - 230° 230° 5 kt METAR EDTY 270150Z AUTO 23005KT 9999 // NCD 12/09 Q1022
3:20 am
V
52 °F 6¼ mi+ - 230° 230° 5 kt METAR EDTY 270120Z AUTO 23005KT 9999 // NCD 11/09 Q1022
2:50 am
V
55 °F 6¼ mi+ - 220° 220° 6 kt METAR EDTY 270050Z AUTO 22006KT 9999 // FEW220/// 13/09 Q1022
2:20 am
V
54 °F 6¼ mi+ 21.000 ft 230° 230° 6 kt METAR EDTY 270020Z AUTO 23006KT 9999 // BKN210/// 12/09 Q1022
1:50 am
V
54 °F 6¼ mi+ - 230° 230° 7 kt METAR EDTY 262350Z AUTO 23007KT 9999 // FEW240/// 12/09 Q1023
1:20 am
V
54 °F 6¼ mi+ 23.000 ft 230° 230° 6 kt METAR EDTY 262320Z AUTO 23006KT 9999 // BKN230/// 12/09 Q1023
12:50 am
V
54 °F 6¼ mi+ 23.000 ft 220° 220° 5 kt METAR EDTY 262250Z AUTO 22005KT 9999 // BKN230/// 12/09 Q1023
12:20 am
V
54 °F 6¼ mi+ 22.000 ft 220° 220° 5 kt METAR EDTY 262220Z AUTO 22005KT 9999 // BKN220/// 12/09 Q1023

26. Mai 2022

Uhrzeit Code Wetter Temp. Sichtweite Wolkendecke Wind METAR/SPECI
11:50 pm
V
54 °F 6¼ mi+ - 230° 230° 5 kt METAR EDTY 262150Z AUTO 23005KT 9999 // SCT250/// 12/09 Q1023
11:20 pm
V
55 °F 6¼ mi+ - 230° 230° 6 kt METAR EDTY 262120Z AUTO 23006KT 9999 // NCD 13/09 Q1023
10:50 pm
V
55 °F 6¼ mi+ - 230° 230° 6 kt METAR EDTY 262050Z AUTO 23006KT 9999 // NCD 13/09 Q1023
10:20 pm
V
55 °F 6¼ mi+ - 230° 230° 6 kt METAR EDTY 262020Z AUTO 23006KT 9999 // NCD 13/10 Q1023
9:50 pm
V
57 °F 6¼ mi+ - 230° 230° 5 kt METAR EDTY 261950Z AUTO 23005KT 9999 // NCD 14/09 Q1023
9:20 pm
V
59 °F 6¼ mi+ - 240° 240° 5 kt METAR EDTY 261920Z AUTO 24005KT 9999 // NCD 15/09 Q1023
8:50 pm
V
61 °F 6¼ mi+ - 260° 260° 5 kt METAR EDTY 261850Z AUTO 26005KT 9999 // FEW220/// 16/09 Q1023
8:20 pm
V
63 °F 6¼ mi+ 23.000 ft 270° 270° 8 kt METAR EDTY 261820Z AUTO 27008KT 9999 // FEW041/// BKN230/// 17/09 Q1023
7:50 pm
V
64 °F 6¼ mi+ 4.300 ft 260° 260° 8 kt METAR EDTY 261750Z 26008KT 9999 BKN043 18/09 Q1023
7:20 pm
V
64 °F 6¼ mi+ 4.000 ft 270° 270° 7 kt METAR EDTY 261720Z 27007KT 240V300 9999 BKN040 18/10 Q1023
6:50 pm
V
64 °F 6¼ mi+ 4.800 ft 250° 250° 8 kt METAR EDTY 261650Z 25008KT 9999 SCT039 BKN048 18/10 Q1023
6:20 pm
V
64 °F 6¼ mi+ - 260° 260° 10 kt METAR EDTY 261620Z 26010KT 230V290 9999 FEW041 SCT048 18/09 Q1023
5:50 pm
V
64 °F 6¼ mi+ - 280° 280° 10 kt METAR EDTY 261550Z 28010KT 9999 FEW041 18/09 Q1023
5:20 pm
V
64 °F 6¼ mi+ 4.100 ft 270° 270° 11 kt METAR EDTY 261520Z 27011KT 9999 BKN041 BKN049 18/10 Q1024
4:50 pm
V
64 °F 6¼ mi+ - 280° 280° 8 kt METAR EDTY 261450Z 28008KT 250V310 9999 FEW037 SCT047 18/09 Q1023
4:20 pm
V
61 °F 6¼ mi+ 3.600 ft 280° 280° 11 kt METAR EDTY 261420Z 28011KT 9999 BKN036 BKN043 16/09 Q1024
3:50 pm
V
63 °F 6¼ mi+ - 270° 270° 12 kt METAR EDTY 261350Z 27012KT 230V300 9999 FEW036 17/10 Q1024
3:20 pm
V
64 °F 6¼ mi+ - 250° 250° 12 kt METAR EDTY 261320Z 25012KT 9999 FEW034 18/10 Q1024
2:50 pm
V
63 °F 6¼ mi+ - 260° 260° 12 kt METAR EDTY 261250Z 26012KT 230V290 9999 FEW033 17/10 Q1024
2:20 pm
V
61 °F 6¼ mi+ 3.400 ft 260° 260° 10 kt METAR EDTY 261220Z 26010KT 230V300 9999 OVC034 16/09 Q1024
1:50 pm
V
61 °F 6¼ mi+ 3.700 ft 250° 250° 11 kt METAR EDTY 261150Z 25011KT 9999 BKN037 16/09 Q1024
1:20 pm
V
64 °F 6¼ mi+ - 260° 260° 11 kt METAR EDTY 261120Z 26011KT 230V290 9999 SCT036 18/10 Q1024
12:50 pm
V
63 °F 6¼ mi+ 3.500 ft 240° 240° 12 kt METAR EDTY 261050Z 24012KT 9999 BKN035 17/09 Q1024
12:20 pm
V
63 °F 6¼ mi+ - 260° 260° 12 kt METAR EDTY 261020Z 26012KT 230V290 9999 SCT035 17/09 Q1024
11:50 am
V
61 °F 6¼ mi+ 3.200 ft 260° 260° 12 kt METAR EDTY 260950Z 26012KT 9999 BKN032 16/09 Q1024
11:20 am
V
61 °F 6¼ mi+ - 260° 260° 12 kt METAR EDTY 260920Z 26012KT 220V290 9999 FEW031 16/09 Q1024
10:50 am
V
61 °F 6¼ mi+ - 260° 260° 11 kt METAR EDTY 260850Z 26011KT 9999 FEW044 16/09 Q1024
10:20 am
V
59 °F 6¼ mi+ 3.100 ft 260° 260° 12 kt METAR EDTY 260820Z 26012KT 9999 BKN031 15/08 Q1024
9:50 am
V
59 °F 6¼ mi+ - 270° 270° 9 kt METAR EDTY 260750Z 27009KT 230V310 9999 SCT031 15/09 Q1023
9:20 am
V
59 °F 6¼ mi+ - 250° 250° 11 kt METAR EDTY 260720Z 25011KT 9999 FEW036 15/09 Q1023
8:50 am
V
57 °F 6¼ mi+ 3.700 ft 250° 250° 8 kt METAR EDTY 260650Z 25008KT 9999 BKN037 14/08 Q1023
8:20 am
V
57 °F 6¼ mi+ 6.400 ft 250° 250° 8 kt METAR EDTY 260620Z AUTO 25008KT 9999 // SCT042/// OVC064/// 14/08 Q1023
7:50 am
V
57 °F 6¼ mi+ 6.400 ft 240° 240° 7 kt METAR EDTY 260550Z AUTO 24007KT 9999 // BKN064/// 14/09 Q1022
7:20 am
V
55 °F 6¼ mi+ - 230° 230° 4 kt METAR EDTY 260520Z AUTO 23004KT 9999 // FEW057/// 13/08 Q1022
6:50 am
V
54 °F 6¼ mi+ - 220° 220° 5 kt METAR EDTY 260450Z AUTO 22005KT 9999 // FEW086/// 12/08 Q1022
6:20 am
V
52 °F 6¼ mi+ - 220° 220° 5 kt METAR EDTY 260420Z AUTO 22005KT 9999 // FEW088/// 11/07 Q1022
5:50 am
V
52 °F 6¼ mi+ 8.600 ft 220° 220° 5 kt METAR EDTY 260350Z AUTO 22005KT 9999 // BKN086/// 11/07 Q1021
5:20 am
V
52 °F 6¼ mi+ 8.600 ft 220° 220° 5 kt METAR EDTY 260320Z AUTO 22005KT 9999 // BKN086/// 11/07 Q1021
4:50 am
V
52 °F 6¼ mi+ 8.500 ft 220° 220° 5 kt METAR EDTY 260250Z AUTO 22005KT 9999 // BKN085/// 11/08 Q1021
4:20 am
V
54 °F 6¼ mi+ 8.700 ft 210° 210° 5 kt METAR EDTY 260220Z AUTO 21005KT 9999 // SCT062/// BKN087/// BKN098/// 12/08 Q1021
3:50 am
V
52 °F 6¼ mi+ 9.800 ft 230° 230° 6 kt METAR EDTY 260150Z AUTO 23006KT 9999 // FEW069/// OVC098/// 11/08 Q1021
3:20 am
V
52 °F 6¼ mi+ 9.900 ft 220° 220° 5 kt METAR EDTY 260120Z AUTO 22005KT 9999 // FEW072/// BKN099/// BKN210/// 11/07 Q1021
2:50 am
V
52 °F 6¼ mi+ 7.100 ft 220° 220° 5 kt METAR EDTY 260050Z AUTO 22005KT 9999 // BKN071/// 11/08 Q1021
2:20 am
V
52 °F 6¼ mi+ 7.000 ft 220° 220° 5 kt METAR EDTY 260020Z AUTO 22005KT 9999 // BKN070/// BKN220/// 11/08 Q1021
1:50 am
V
52 °F 6¼ mi+ - 230° 230° 4 kt METAR EDTY 252350Z AUTO 23004KT 9999 // FEW071/// 11/08 Q1021
1:20 am
V
52 °F 6¼ mi+ - 220° 220° 4 kt METAR EDTY 252320Z AUTO 22004KT 9999 // NCD 11/08 Q1021
12:50 am
V
52 °F 6¼ mi+ - 220° 220° 4 kt METAR EDTY 252250Z AUTO 22004KT 9999 // NCD 11/08 Q1021
12:20 am
V
54 °F 6¼ mi+ - 220° 220° 5 kt METAR EDTY 252220Z AUTO 22005KT 9999 // NCD 12/07 Q1021

25. Mai 2022

Uhrzeit Code Wetter Temp. Sichtweite Wolkendecke Wind METAR/SPECI
11:50 pm
V
55 °F 6¼ mi+ - 210° 210° 5 kt METAR EDTY 252150Z AUTO 21005KT 9999 // NCD 13/07 Q1020
11:20 pm
V
57 °F 6¼ mi+ - 210° 210° 4 kt METAR EDTY 252120Z AUTO 21004KT 160V230 9999 // FEW077/// 14/07 Q1020
10:50 pm
V
57 °F 6¼ mi+ - 220° 220° 4 kt METAR EDTY 252050Z AUTO 22004KT 9999 // FEW075/// 14/07 Q1020
10:20 pm
V
57 °F 6¼ mi+ - 220° 220° 4 kt METAR EDTY 252020Z AUTO 22004KT 9999 // NCD 14/07 Q1020
9:50 pm
V
59 °F 6¼ mi+ - 220° 220° 4 kt METAR EDTY 251950Z 22004KT CAVOK 15/07 Q1019
9:20 pm
V
61 °F 6¼ mi+ - 260° 260° 5 kt METAR EDTY 251920Z 26005KT CAVOK 16/06 Q1019
8:50 pm
V
63 °F 6¼ mi+ - 270° 270° 5 kt METAR EDTY 251850Z 27005KT CAVOK 17/06 Q1019
8:20 pm
V
63 °F 6¼ mi+ - 290° 290° 7 kt METAR EDTY 251820Z 29007KT CAVOK 17/06 Q1019
7:50 pm
V
64 °F 6¼ mi+ - 290° 290° 8 kt METAR EDTY 251750Z 29008KT CAVOK 18/06 Q1018
7:20 pm
V
66 °F 6¼ mi+ - 270° 270° 9 kt METAR EDTY 251720Z 27009KT CAVOK 19/05 Q1018
6:50 pm
V
66 °F 6¼ mi+ - 290° 290° 10 kt METAR EDTY 251650Z 29010KT CAVOK 19/06 Q1018
6:20 pm
V
66 °F 6¼ mi+ - 290° 290° 9 kt METAR EDTY 251620Z 29009KT 260V320 CAVOK 19/05 Q1018
5:50 pm
V
66 °F 6¼ mi+ - 290° 290° 8 kt METAR EDTY 251550Z 29008KT 250V350 CAVOK 19/06 Q1017
5:20 pm
V
68 °F 6¼ mi+ - 270° 270° 10 kt METAR EDTY 251520Z 27010KT CAVOK 20/05 Q1017
4:50 pm
V
66 °F 6¼ mi+ - 270° 270° 6 kt METAR EDTY 251450Z 27006KT 230V320 CAVOK 19/06 Q1017
4:20 pm
V
68 °F 6¼ mi+ - 280° 280° 10 kt METAR EDTY 251420Z 28010KT 250V330 CAVOK 20/06 Q1017
3:50 pm
V
68 °F 6¼ mi+ - 240° 240° 6 kt METAR EDTY 251350Z 24006KT 190V290 CAVOK 20/06 Q1017
3:20 pm
V
66 °F 6¼ mi+ - 300° 300° 8 kt METAR EDTY 251320Z 30008KT 200V340 CAVOK 19/06 Q1017
2:50 pm
V
68 °F 6¼ mi+ - 280° 280° 8 kt METAR EDTY 251250Z 28008KT 220V320 CAVOK 20/07 Q1017
2:20 pm
V
66 °F 6¼ mi+ - 280° 280° 9 kt METAR EDTY 251220Z 28009KT 250V310 CAVOK 19/07 Q1017
1:50 pm
V
64 °F 6¼ mi+ - 280° 280° 11 kt METAR EDTY 251150Z 28011KT 250V310 CAVOK 18/06 Q1017
1:20 pm
V
64 °F 6¼ mi+ - 280° 280° 8 kt METAR EDTY 251120Z 28008KT 250V310 CAVOK 18/07 Q1018
12:50 pm
V
64 °F 6¼ mi+ - 260° 260° 8 kt METAR EDTY 251050Z 26008KT 210V300 CAVOK 18/08 Q1018
Ältere Daten

Laden Sie unsere App herunter

Einfacher Zugriff auf das gesamte Flugwetter auf Ihrem Mobiltelefon und Tablet.
Mit vielen Funktionen, die auf der Website nicht verfügbar sind, wie Offline-Unterstützung und eine persönliche Flughafenliste.

Wir und Dritte verfolgen dein Internetverhalten auf unserer Website mit Cookies. Wenn du fortfährst, gehen wir davon aus, dass du mit unserer Cookie-Richtlinie einverstanden bist. Mehr erfahren